AirNav   Phillips 66 Aviation Fuel
 
 920 users online  

CD28 Tall Timber Airport
Indian Hills, Colorado, USA

GOING TO INDIAN HILLS?


FAA INFORMATION EFFECTIVE 12 SEPTEMBER 2019

Location

FAA Identifier: CD28
Lat/Long: 39-38-37.9800N 105-16-03.4800W
39-38.633000N 105-16.058000W
39.6438833,-105.2676333
(estimated)
Elevation: 7360 ft. / 2243 m (estimated)
From city: 6 miles N of INDIAN HILLS, CO
Time zone: UTC -6 (UTC -7 during Standard Time)
Zip code: 80465

Airport Operations

Airport use: Private use. Permission required prior to landing
Activation date: 03/2003
Control tower: no
ARTCC: DENVER CENTER
FSS: DENVER FLIGHT SERVICE STATION
Attendance: UNATNDD
Wind indicator: yes
Segmented circle: no

Airport Communications

WX AWOS-3 at BJC (17 nm NE): PHONE 720-887-8067
WX ASOS at APA (20 nm E): 120.3 (720-873-2799)

Nearby radio navigation aids

VOR radial/distance  VOR name  Freq  Var
BJCr189/17.2JEFFCO VOR/DME115.4011E
DENr242/29.8DENVER VOR/DME117.9008E
FQFr254/30.0FALCON VORTAC116.3011E
DVVr235/33.3MILE HIGH VORTAC114.7008E

Airport Services

Runway Information

Runway 13/31

Dimensions: 1800 x 40 ft. / 549 x 12 m
Surface: turf
RUNWAY 13  RUNWAY 31
Traffic pattern: leftleft
Obstructions: 50 ft. trees, 300 ft. from runway50 ft. trees, 150 ft. from runway

Airport Ownership and Management from official FAA records

Ownership: Privately-owned
Owner: JAMES G. LEPRINO
9626 METRO AIRPORT AVE
BROOMFIELD, CO 80021
Phone 303-469-5577
Manager: ROY HALLADAY
9566 METRO AIRPORT AVE
BROOMFIELD, CO 80021
Phone 303-469-5577

Additional Remarks

FOR CD CTC DENVER APCH AT 303-342-1916.

Instrument Procedures

There are no published instrument procedures at CD28.

Some nearby airports with instrument procedures:

KBJC - Rocky Mountain Metropolitan Airport (17 nm NE)
KAPA - Centennial Airport (20 nm E)
KBKF - Buckley Air Force Base (24 nm E)
KEIK - Erie Municipal Airport (24 nm NE)
KDEN - Denver International Airport (30 nm NE)
 
Loc | Ops | Rwys | IFR | FBO | Links
Com | Nav | Svcs | Stats | Notes

AirBoss

 
Area around CD28 (Tall Timber Airport)
 
Road maps at: MapQuest Bing Google
 
Aerial photo
No photo
 
Sectional chart

 
Airport distance calculator
Flying to Tall Timber Airport? Find the distance to fly.

From to CD28

Sunrise and sunset
Times for 15-Sep-2019
 Local
(UTC-6)
 Zulu
(UTC)
Morning civil twilight06:1612:16
Sunrise06:4312:43
Sunset19:0901:09
Evening civil twilight19:3601:36

Current date and time
Zulu (UTC)  15-Sep-2019 21:20:01
Local (UTC-6)  15-Sep-2019 15:20:01
 
METAR
KBJC 
18nm NE 
152051Z 02007KT 20SM FEW080 SCT140 BKN220 30/M01 A3010 RMK ACSL DSNT SW
KAPA 
20nm E 
152053Z 12011G18KT 10SM FEW120 BKN160 BKN200 31/M01 A3010 RMK AO2 SLP111 ACSL DSNT SW-NW T03111011 56026
K1V5 
24nm N 
AWOS 118.825 303-541-9540
No observation available
KBDU 
24nm N 
152048Z AUTO 00000KT 10SM CLR 29/01 A3007 RMK AO2
KEIK 
24nm NE 
152053Z AUTO 00000KT 10SM CLR 30/M03 A3011 RMK AO2 T03041034
KBKF 
24nm E 
151958Z 10008KT 10SM FEW110 SCT150 BKN220 31/01 A3011 RMK AO2A SLP115 T03140007
K0CO 
25nm W 
152054Z AUTO 12004G14KT 10SM BKN090 12/02 A3064 RMK AO2 LTG DSNT S
KDEN 
31nm E 
152053Z 07009KT 10SM FEW120 FEW160 BKN200 32/M01 A3007 RMK AO2 SLP089 T03221006 58026
KLMO 
32nm N 
152055Z AUTO 07004KT 10SM CLR 32/01 A3008 RMK AO2 T03170012
KFTG 
34nm E 
152053Z 12008KT 10SM SCT120 SCT140 BKN200 32/01 A3009
TAF
KBJC 
18nm NE 
151721Z 1518/1618 30005KT P6SM FEW150 BKN220 FM151900 08009KT P6SM FEW120 SCT150 BKN220 FM160300 27005KT P6SM SCT140 BKN220 FM161600 01005KT P6SM FEW120 BKN220
KAPA 
20nm E 
151721Z 1518/1618 VRB05KT P6SM FEW150 BKN220 FM152000 09008KT P6SM FEW120 BKN220 FM152200 14012KT P6SM FEW100 SCT140 BKN220 FM160500 18010KT P6SM SCT140 BKN220 FM161600 35009KT P6SM FEW140 BKN220
NOTAMs
Click for the latest NOTAMs
NOTAMs are issued by the DoD/FAA and will open in a separate window not controlled by AirNav.

 

 
 

Would you like to see your business listed on this page?

 If your business provides an interesting product or service to pilots, flight crews, aircraft, or users of the Tall Timber Airport, you should consider listing it here.  To start the listing process, click on the button below
 
Add a business
 

Other Pages about Tall Timber Airport

Update a link
 
Copyright © AirNav, LLC. All rights reserved. Privacy Policy  Contact